This is the latest recevied weather packets stored in our database for station/object 9W2EXL-13. If no packets are shown the sender has not sent any weather packets the latest 10 day(s).
| Time | Temp. | Humidity | Pressure | Rain* | Wind** | Luminosity | Snow |
|---|---|---|---|---|---|---|---|
| 1788429111 | 32.22° C | 78% | 1010.3 hPa | - | - | - | - |
| 1788428211 | 32.78° C | 76% | 1010.3 hPa | - | - | - | - |
| 1788427436 | 33.33° C | 74% | 1010.6 hPa | - | - | - | - |
| 1788427310 | 33.33° C | 74% | 1010.6 hPa | - | - | - | - |
| 1788426456 | 33.33° C | 70% | 1010.4 hPa | - | - | - | - |
| 1788426410 | 33.33° C | 70% | 1010.4 hPa | - | - | - | - |
| 1788425510 | 33.33° C | 70% | 1010.6 hPa | - | - | - | - |
| 1788424610 | 33.89° C | 71% | 1010.2 hPa | - | - | - | - |
| 1788423710 | 33.33° C | 71% | 1010 hPa | - | - | - | - |
| 1788422810 | 33.89° C | 72% | 1009.5 hPa | - | - | - | - |
| 1788422245 | 33.89° C | 76% | 1009.9 hPa | - | - | - | - |
| 1788421910 | 33.89° C | 76% | 1009.9 hPa | - | - | - | - |
| 1788414709 | 34.44° C | 78% | 1011.1 hPa | - | - | - | - |
| 1788410209 | 33.89° C | 76% | 1012.3 hPa | - | - | - | - |
| 1788407508 | 32.78° C | 84% | 1013.1 hPa | - | - | - | - |
| 1788405708 | 32.78° C | 84% | 1013.5 hPa | - | - | - | - |
| 1788404808 | 32.22° C | 86% | 1013.6 hPa | - | - | - | - |
| 1788403008 | 32.22° C | 88% | 1013.6 hPa | - | - | - | - |
| 1788402108 | 31.67° C | 90% | 1013.9 hPa | - | - | - | - |
| 1788398511 | 30° C | 99% | 1013.3 hPa | - | - | - | - |
| 1788397607 | 30.56° C | 92% | 1013 hPa | - | - | - | - |
| 1788395807 | 30.56° C | 97% | 1012.8 hPa | - | - | - | - |
| 1788391306 | 30° C | 98% | 1012.5 hPa | - | - | - | - |
| 1788390406 | 30° C | 98% | 1012.4 hPa | - | - | - | - |
| 1788389506 | 30° C | 98% | 1012.2 hPa | - | - | - | - |
* Rain since midnight (hover to see other rain measurements)
** Current wind speed in m/s (hover to see current wind gust speed)